createdAt,value
2018-12-16T00:01:04.903Z,15.70
2018-12-16T00:03:11.190Z,17.57
2018-12-16T00:05:16.685Z,18.03
2018-12-16T00:07:23.486Z,17.40
2018-12-16T00:09:34.882Z,18.07
2018-12-16T00:11:41.686Z,15.73
2018-12-16T00:13:48.951Z,16.50
2018-12-16T00:15:54.885Z,16.90
2018-12-16T00:18:01.283Z,17.50
2018-12-16T00:20:05.870Z,12.87
2018-12-16T00:22:15.271Z,17.40
2018-12-16T00:24:22.285Z,16.77
2018-12-16T00:26:38.503Z,17.23
2018-12-16T00:28:44.487Z,18.30
2018-12-16T00:30:49.846Z,16.37
2018-12-16T00:32:55.722Z,17.80
2018-12-16T00:35:02.294Z,17.57
2018-12-16T00:37:06.395Z,18.47
2018-12-16T00:39:10.582Z,18.10
2018-12-16T00:41:18.721Z,17.77
2018-12-16T00:43:22.771Z,17.60
2018-12-16T00:45:26.956Z,18.07
2018-12-16T00:47:31.702Z,17.97
2018-12-16T00:49:38.190Z,17.53
2018-12-16T00:51:43.870Z,17.33
2018-12-16T00:53:47.818Z,17.20
2018-12-16T00:55:53.514Z,18.07
2018-12-16T00:57:58.925Z,18.13
2018-12-16T01:00:03.875Z,18.30
2018-12-16T01:02:12.635Z,18.97
2018-12-16T01:04:17.815Z,17.70
2018-12-16T01:06:22.899Z,17.77
2018-12-16T01:08:26.989Z,18.23
2018-12-16T01:10:31.789Z,18.10
2018-12-16T01:12:37.810Z,18.20
2018-12-16T01:14:43.747Z,16.80
2018-12-16T01:16:47.789Z,17.73
2018-12-16T01:18:52.094Z,17.37
2018-12-16T01:20:56.166Z,18.17
2018-12-16T01:23:01.030Z,17.80
2018-12-16T01:25:05.427Z,18.70
2018-12-16T01:27:10.342Z,18.60
2018-12-16T01:29:14.326Z,18.47
2018-12-16T01:31:22.053Z,18.20
2018-12-16T01:33:26.045Z,17.37
2018-12-16T01:35:29.986Z,18.47
2018-12-16T01:37:37.051Z,17.93
2018-12-16T01:39:42.656Z,18.67
2018-12-16T01:41:47.672Z,17.60
2018-12-16T01:43:53.432Z,18.87
2018-12-16T01:45:57.639Z,19.47
2018-12-16T01:48:02.346Z,18.63
2018-12-16T01:50:07.460Z,16.57
2018-12-16T01:52:11.374Z,19.37
2018-12-16T01:54:16.011Z,18.67
2018-12-16T01:56:21.420Z,18.93
2018-12-16T01:58:25.422Z,18.77
2018-12-16T02:00:31.677Z,17.80
2018-12-16T02:02:36.729Z,20.20
2018-12-16T02:04:41.097Z,18.87
2018-12-16T02:06:45.106Z,18.43
2018-12-16T02:08:49.330Z,17.57
2018-12-16T02:10:53.883Z,19.27
2018-12-16T02:12:59.015Z,18.73
2018-12-16T02:15:13.250Z,18.83
2018-12-16T02:17:17.269Z,18.03
2018-12-16T02:19:21.373Z,18.20
2018-12-16T02:21:26.375Z,19.63
2018-12-16T02:23:30.515Z,19.53
2018-12-16T02:25:34.480Z,17.53
2018-12-16T02:27:40.446Z,20.07
2018-12-16T02:29:45.452Z,19.53
2018-12-16T02:31:49.422Z,19.67
2018-12-16T02:33:54.177Z,19.70
2018-12-16T02:35:58.963Z,19.73
2018-12-16T02:38:02.917Z,20.57
2018-12-16T02:40:06.979Z,18.40
2018-12-16T02:42:12.167Z,18.87
2018-12-16T02:44:16.264Z,19.03
2018-12-16T02:46:21.807Z,18.80
2018-12-16T02:48:25.868Z,18.30
2018-12-16T02:50:31.645Z,20.07
2018-12-16T02:52:36.236Z,20.20
2018-12-16T02:54:40.848Z,15.63
2018-12-16T02:56:45.143Z,14.80
2018-12-16T02:58:49.430Z,20.77
2018-12-16T03:00:53.371Z,16.77
2018-12-16T03:03:00.132Z,18.70
2018-12-16T03:05:04.630Z,19.80
2018-12-16T03:07:09.341Z,19.57
2018-12-16T03:09:13.812Z,20.30
2018-12-16T03:11:19.306Z,17.00
2018-12-16T03:13:23.883Z,20.10
2018-12-16T03:15:28.390Z,19.30
2018-12-16T03:17:33.279Z,18.27
2018-12-16T03:19:39.222Z,19.67
2018-12-16T03:21:44.924Z,19.27
2018-12-16T03:23:51.039Z,15.27
2018-12-16T03:25:57.503Z,18.23
2018-12-16T03:28:03.549Z,19.63
2018-12-16T03:30:13.163Z,19.87
2018-12-16T03:32:19.919Z,20.97
2018-12-16T03:34:25.223Z,21.07
2018-12-16T03:36:32.305Z,18.03
2018-12-16T03:38:36.705Z,18.37
2018-12-16T03:40:41.533Z,21.07
2018-12-16T03:42:51.623Z,20.83
2018-12-16T03:44:57.219Z,20.20
2018-12-16T03:47:01.217Z,20.77
2018-12-16T03:49:07.818Z,19.97
2018-12-16T03:51:11.797Z,21.60
2018-12-16T03:53:20.168Z,19.77
2018-12-16T03:55:23.350Z,19.50
2018-12-16T03:57:28.061Z,21.80
2018-12-16T03:59:32.739Z,20.27
2018-12-16T04:01:38.386Z,20.83
2018-12-16T04:03:43.496Z,18.10
2018-12-16T04:05:47.715Z,17.03
2018-12-16T04:07:53.791Z,20.33
2018-12-16T04:09:58.785Z,22.07
2018-12-16T04:12:03.976Z,21.43
2018-12-16T04:14:09.141Z,22.03
2018-12-16T04:16:14.964Z,19.90
2018-12-16T04:18:19.102Z,19.70
2018-12-16T04:20:23.662Z,21.93
2018-12-16T04:22:27.716Z,20.97
2018-12-16T04:24:33.990Z,21.17
2018-12-16T04:26:40.064Z,21.50
2018-12-16T04:28:44.259Z,21.37
2018-12-16T04:30:48.439Z,20.47
2018-12-16T04:32:53.342Z,18.77
2018-12-16T04:34:57.517Z,20.07
2018-12-16T04:37:01.446Z,20.07
2018-12-16T04:39:09.130Z,18.13
2018-12-16T04:41:13.187Z,21.00
2018-12-16T04:43:20.968Z,21.40
2018-12-16T04:45:25.483Z,21.70
2018-12-16T04:47:29.827Z,18.80
2018-12-16T04:49:33.994Z,20.70
2018-12-16T04:51:39.324Z,20.10
2018-12-16T04:53:44.183Z,21.30
2018-12-16T04:55:48.146Z,18.47
2018-12-16T04:57:52.776Z,19.77
2018-12-16T04:59:57.082Z,20.27
2018-12-16T05:02:01.249Z,21.87
2018-12-16T05:04:05.598Z,22.37
2018-12-16T05:06:09.973Z,22.43
2018-12-16T05:08:14.024Z,20.77
2018-12-16T05:10:31.349Z,21.83
2018-12-16T05:12:38.398Z,22.07
2018-12-16T05:14:43.798Z,22.17
2018-12-16T05:16:51.343Z,22.27
2018-12-16T05:18:56.109Z,26.83
2018-12-16T05:21:00.122Z,24.33
2018-12-16T05:23:04.455Z,25.67
2018-12-16T05:25:08.990Z,25.70
2018-12-16T05:27:13.154Z,26.27
2018-12-16T05:29:18.417Z,25.87
2018-12-16T05:31:24.026Z,24.73
2018-12-16T05:33:28.056Z,22.07
2018-12-16T05:35:38.059Z,26.33
2018-12-16T05:37:42.583Z,28.07
2018-12-16T05:39:47.057Z,26.93
2018-12-16T05:41:52.683Z,26.97
2018-12-16T05:43:58.698Z,28.23
2018-12-16T05:46:03.127Z,28.63
2018-12-16T05:48:07.563Z,28.17
2018-12-16T05:50:11.907Z,26.77
2018-12-16T05:52:15.916Z,27.13
2018-12-16T05:54:23.260Z,29.67
2018-12-16T05:56:27.837Z,28.57
2018-12-16T05:58:32.913Z,29.50
2018-12-16T06:00:38.345Z,26.27
2018-12-16T06:02:42.365Z,29.07
2018-12-16T06:04:47.204Z,28.03
2018-12-16T06:06:52.241Z,28.23
2018-12-16T06:08:57.750Z,28.47
2018-12-16T06:11:01.924Z,28.90
2018-12-16T06:13:07.142Z,28.30
2018-12-16T06:15:15.356Z,28.13
2018-12-16T06:17:23.027Z,26.87
2018-12-16T06:19:33.373Z,28.53
2018-12-16T06:21:46.764Z,28.10
2018-12-16T06:23:56.136Z,27.40
2018-12-16T06:26:05.572Z,28.37
2018-12-16T06:28:13.597Z,29.10
2018-12-16T06:30:22.990Z,28.60
2018-12-16T06:32:26.990Z,27.87
2018-12-16T06:34:31.543Z,29.13
2018-12-16T06:36:35.567Z,26.47
2018-12-16T06:38:41.060Z,27.80
2018-12-16T06:40:45.758Z,29.97
2018-12-16T06:42:50.461Z,28.83
2018-12-16T06:44:55.231Z,27.93
2018-12-16T06:46:59.837Z,29.23
2018-12-16T06:49:05.381Z,30.20
2018-12-16T06:51:10.253Z,28.30
2018-12-16T06:53:15.000Z,30.27
2018-12-16T06:55:19.203Z,30.27
2018-12-16T06:57:24.286Z,27.00
2018-12-16T06:59:29.799Z,26.73
2018-12-16T07:01:33.894Z,28.07
2018-12-16T07:03:39.226Z,28.07
2018-12-16T07:05:44.054Z,27.43
2018-12-16T07:07:50.085Z,29.07
2018-12-16T07:09:55.363Z,28.10
2018-12-16T07:12:00.253Z,28.90
2018-12-16T07:14:05.893Z,29.37
2018-12-16T07:16:11.260Z,27.53
2018-12-16T07:18:15.342Z,28.70
2018-12-16T07:20:19.418Z,29.13
2018-12-16T07:22:24.689Z,27.40
2018-12-16T07:24:28.786Z,27.60
2018-12-16T07:26:33.325Z,27.93
2018-12-16T07:28:37.676Z,29.27
2018-12-16T07:30:42.773Z,29.47
2018-12-16T07:32:48.957Z,29.60
2018-12-16T07:34:53.594Z,30.30
2018-12-16T07:37:00.132Z,30.53
2018-12-16T07:39:05.813Z,30.17
2018-12-16T07:41:11.803Z,31.27
2018-12-16T07:43:16.328Z,28.37
2018-12-16T07:45:23.395Z,29.10
2018-12-16T07:47:28.045Z,29.60
2018-12-16T07:49:33.142Z,28.43
2018-12-16T07:51:37.712Z,30.40
2018-12-16T07:53:42.265Z,28.70
2018-12-16T07:55:47.594Z,29.40
2018-12-16T07:57:55.025Z,28.47
2018-12-16T08:00:00.585Z,29.63
2018-12-16T08:02:05.356Z,30.13
2018-12-16T08:04:09.603Z,31.60
2018-12-16T08:06:15.042Z,30.00
2018-12-16T08:08:20.093Z,29.10
2018-12-16T08:10:24.489Z,28.87
2018-12-16T08:12:29.313Z,31.37
2018-12-16T08:14:34.458Z,30.37
2018-12-16T08:16:38.812Z,29.47
2018-12-16T08:18:44.462Z,29.80
2018-12-16T08:20:50.473Z,29.73
2018-12-16T08:22:55.437Z,30.47
2018-12-16T08:25:02.979Z,30.20
2018-12-16T08:27:08.703Z,31.03
2018-12-16T08:29:13.841Z,30.30
2018-12-16T08:31:20.364Z,30.70
2018-12-16T08:33:24.361Z,29.90
2018-12-16T08:35:29.211Z,30.40
2018-12-16T08:37:34.150Z,31.13
2018-12-16T08:39:39.717Z,30.30
2018-12-16T08:41:45.992Z,31.13
2018-12-16T08:43:52.035Z,29.37
2018-12-16T08:45:56.778Z,31.10
2018-12-16T08:48:00.911Z,29.17
2018-12-16T08:50:06.575Z,30.33
2018-12-16T08:52:10.826Z,29.87
2018-12-16T08:54:18.780Z,30.27
2018-12-16T08:56:23.675Z,29.60
2018-12-16T08:58:28.887Z,29.87
2018-12-16T09:00:33.652Z,30.33
2018-12-16T09:02:38.321Z,30.60
2018-12-16T09:04:43.343Z,32.00
2018-12-16T09:06:51.508Z,31.37
2018-12-16T09:08:58.446Z,31.97
2018-12-16T09:11:03.531Z,32.47
2018-12-16T09:13:10.065Z,32.83
2018-12-16T09:15:14.853Z,31.60
2018-12-16T09:17:19.650Z,29.37
2018-12-16T09:19:28.960Z,32.27
2018-12-16T09:21:34.025Z,31.43
2018-12-16T09:23:39.705Z,30.53
2018-12-16T09:25:47.344Z,29.63
2018-12-16T09:27:51.658Z,30.53
2018-12-16T09:29:56.649Z,30.70
2018-12-16T09:32:02.815Z,30.83
2018-12-16T09:34:07.561Z,31.87
2018-12-16T09:36:13.734Z,31.83
2018-12-16T09:38:19.064Z,30.20
2018-12-16T09:40:24.644Z,31.13
2018-12-16T09:42:29.114Z,31.97
2018-12-16T09:44:34.468Z,31.97
2018-12-16T09:46:39.653Z,31.50
2018-12-16T09:48:45.300Z,30.40
2018-12-16T09:50:50.434Z,31.63
2018-12-16T09:52:57.306Z,31.07
2018-12-16T09:55:02.452Z,31.87
2018-12-16T09:57:09.530Z,32.97
2018-12-16T09:59:15.847Z,31.57
2018-12-16T10:01:20.805Z,31.47
2018-12-16T10:03:26.381Z,30.53
2018-12-16T10:05:32.398Z,31.77
2018-12-16T10:07:37.313Z,30.70
2018-12-16T10:09:42.428Z,31.33
2018-12-16T10:11:47.566Z,30.73
2018-12-16T10:13:53.177Z,30.73
2018-12-16T10:15:57.447Z,32.73
2018-12-16T10:18:02.263Z,31.30
2018-12-16T10:20:10.417Z,30.63
2018-12-16T10:22:16.445Z,30.83
2018-12-16T10:24:22.370Z,32.23
2018-12-16T10:26:28.502Z,32.83
2018-12-16T10:28:32.747Z,32.43
2018-12-16T10:30:36.854Z,30.73
2018-12-16T10:32:44.338Z,31.77
2018-12-16T10:34:50.505Z,30.97
2018-12-16T10:36:56.226Z,31.80
2018-12-16T10:39:04.291Z,33.70
2018-12-16T10:41:09.730Z,33.00
2018-12-16T10:43:14.467Z,33.13
2018-12-16T10:45:19.233Z,33.90
2018-12-16T10:47:27.077Z,32.63
2018-12-16T10:49:31.894Z,32.43
2018-12-16T10:51:37.330Z,33.53
2018-12-16T10:53:42.315Z,32.77
2018-12-16T10:55:46.406Z,32.67
2018-12-16T10:57:51.589Z,32.27
2018-12-16T10:59:56.473Z,33.13
2018-12-16T11:02:00.572Z,32.30
2018-12-16T11:04:05.770Z,32.77
2018-12-16T11:06:12.660Z,33.43
2018-12-16T11:08:17.512Z,32.43
2018-12-16T11:10:22.742Z,31.97
2018-12-16T11:12:30.121Z,31.93
2018-12-16T11:14:36.569Z,32.13
2018-12-16T11:16:46.750Z,33.83
2018-12-16T11:18:52.351Z,32.23
2018-12-16T11:20:57.416Z,33.03
2018-12-16T11:23:01.600Z,31.10
2018-12-16T11:25:09.155Z,33.20
2018-12-16T11:27:14.065Z,31.13
2018-12-16T11:29:19.764Z,32.80
2018-12-16T11:31:30.733Z,33.43
2018-12-16T11:33:39.511Z,35.40
2018-12-16T11:35:53.985Z,35.90
2018-12-16T11:38:05.263Z,34.03
2018-12-16T11:43:19.811Z,35.10
2018-12-16T11:45:38.006Z,35.50
2018-12-16T11:50:18.034Z,36.23
2018-12-16T11:52:28.888Z,29.80
2018-12-16T11:54:43.831Z,32.57
2018-12-16T11:56:56.471Z,33.10
2018-12-16T11:59:12.908Z,32.77
2018-12-16T12:01:22.971Z,34.93
2018-12-16T12:03:31.892Z,31.87
2018-12-16T12:05:41.146Z,33.87
2018-12-16T12:07:52.246Z,33.80
2018-12-16T12:10:03.346Z,32.33
2018-12-16T12:12:13.955Z,33.67
2018-12-16T12:14:28.615Z,33.23
2018-12-16T12:16:47.223Z,34.57
2018-12-16T12:19:02.635Z,34.80
2018-12-16T12:21:13.959Z,34.80
2018-12-16T12:23:24.716Z,33.43
2018-12-16T12:25:32.953Z,36.13
2018-12-16T12:27:43.076Z,34.67
2018-12-16T12:29:54.368Z,34.23
2018-12-16T12:32:06.594Z,35.53
2018-12-16T12:34:13.991Z,34.23
2018-12-16T12:36:23.430Z,34.43
2018-12-16T12:38:32.703Z,36.47
2018-12-16T12:40:39.511Z,35.07
2018-12-16T12:42:49.441Z,36.47
2018-12-16T12:47:28.447Z,36.53
2018-12-16T12:49:45.181Z,33.87
2018-12-16T12:52:03.370Z,35.80
2018-12-16T12:54:10.353Z,34.97
2018-12-16T12:56:21.495Z,36.50
2018-12-16T12:58:37.601Z,33.90
2018-12-16T13:00:55.535Z,35.37
2018-12-16T13:03:07.284Z,36.60
2018-12-16T13:05:15.587Z,36.63
2018-12-16T13:09:49.888Z,35.80
2018-12-16T13:12:01.965Z,38.80
2018-12-16T13:14:09.199Z,37.43
2018-12-16T13:16:17.577Z,37.00
2018-12-16T13:18:28.560Z,37.70
2018-12-16T13:20:46.521Z,40.33
2018-12-16T13:22:58.562Z,40.73
2018-12-16T13:25:18.068Z,37.50
2018-12-16T13:27:28.048Z,38.37
2018-12-16T13:29:36.845Z,39.87
2018-12-16T13:31:52.076Z,41.50
2018-12-16T13:34:00.437Z,37.87
2018-12-16T13:36:14.494Z,38.97
2018-12-16T13:38:23.440Z,39.33
2018-12-16T13:40:36.435Z,41.23
2018-12-16T13:42:43.695Z,41.43
2018-12-16T13:44:52.119Z,40.17
2018-12-16T13:47:00.491Z,39.73
2018-12-16T13:49:11.620Z,41.50
2018-12-16T13:51:23.451Z,41.03
2018-12-16T13:53:35.570Z,41.93
2018-12-16T13:55:49.486Z,42.80
2018-12-16T13:57:59.025Z,41.50
2018-12-16T14:00:06.221Z,43.57
2018-12-16T14:02:18.353Z,42.53
2018-12-16T14:04:30.384Z,43.67
2018-12-16T14:06:42.902Z,43.27
2018-12-16T14:08:52.869Z,42.40
2018-12-16T14:11:00.722Z,40.53
2018-12-16T14:13:09.666Z,43.47
2018-12-16T14:15:25.713Z,40.63
2018-12-16T14:17:37.987Z,40.70
2018-12-16T14:19:52.821Z,40.47
2018-12-16T14:22:05.671Z,39.93
2018-12-16T14:24:21.506Z,40.33
2018-12-16T14:26:28.666Z,39.07
2018-12-16T14:28:43.253Z,40.13
2018-12-16T14:30:55.081Z,41.30
2018-12-16T14:33:08.730Z,42.63
2018-12-16T14:35:32.033Z,39.27
2018-12-16T14:37:44.933Z,43.00
2018-12-16T14:39:54.849Z,40.93
2018-12-16T14:42:06.632Z,39.80
2018-12-16T14:44:15.913Z,41.07
2018-12-16T14:46:22.317Z,42.93
2018-12-16T14:48:41.974Z,41.73
2018-12-16T14:51:07.012Z,42.20
2018-12-16T14:55:38.409Z,41.63
2018-12-16T14:57:50.142Z,40.60
2018-12-16T15:00:08.388Z,43.37
2018-12-16T15:02:16.663Z,42.33
2018-12-16T15:04:26.973Z,43.43
2018-12-16T15:06:37.373Z,44.10
2018-12-16T15:08:58.313Z,43.53
2018-12-16T15:11:08.228Z,44.27
2018-12-16T15:13:17.465Z,43.97
2018-12-16T15:15:32.476Z,44.67
2018-12-16T15:17:49.530Z,43.27
2018-12-16T15:19:59.960Z,45.43
2018-12-16T15:22:19.096Z,44.53
2018-12-16T15:24:28.246Z,44.93
2018-12-16T15:26:38.179Z,43.23
2018-12-16T15:28:51.608Z,46.10
2018-12-16T15:31:08.800Z,44.33
2018-12-16T15:33:20.304Z,45.70
2018-12-16T15:35:29.486Z,43.27
2018-12-16T15:37:48.917Z,42.20
2018-12-16T15:39:55.961Z,41.67
2018-12-16T15:42:12.938Z,41.43
2018-12-16T15:44:22.402Z,41.43
2018-12-16T15:46:42.069Z,41.07
2018-12-16T15:48:46.655Z,40.50
2018-12-16T15:50:52.614Z,40.93
2018-12-16T15:52:59.393Z,41.40
2018-12-16T15:55:05.318Z,39.97
2018-12-16T15:57:11.885Z,39.17
2018-12-16T15:59:17.026Z,40.13
2018-12-16T16:01:29.381Z,42.27
2018-12-16T16:03:45.275Z,40.40
2018-12-16T16:05:55.619Z,39.87
2018-12-16T16:08:18.570Z,36.93
2018-12-16T16:10:26.624Z,39.63
2018-12-16T16:12:41.490Z,40.90
2018-12-16T16:15:03.860Z,40.17
2018-12-16T16:17:13.685Z,41.33
2018-12-16T16:19:23.083Z,42.37
2018-12-16T16:21:32.262Z,44.17
2018-12-16T16:23:42.893Z,43.30
2018-12-16T16:25:55.890Z,43.37
2018-12-16T16:28:06.960Z,45.00
2018-12-16T16:30:22.719Z,41.80
2018-12-16T16:32:31.793Z,42.07
2018-12-16T16:34:44.738Z,45.43
2018-12-16T16:36:52.817Z,42.60
2018-12-16T16:39:05.181Z,46.13
2018-12-16T16:41:22.033Z,43.03
2018-12-16T16:43:32.537Z,43.10
2018-12-16T16:45:41.473Z,45.30
2018-12-16T16:47:51.292Z,43.90
2018-12-16T16:50:07.450Z,40.57
2018-12-16T16:52:17.262Z,41.97
2018-12-16T16:54:29.510Z,40.77
2018-12-16T16:56:37.377Z,43.60
2018-12-16T16:58:48.565Z,39.33
2018-12-16T17:01:05.443Z,41.97
2018-12-16T17:03:15.447Z,42.20
2018-12-16T17:05:31.538Z,39.77
2018-12-16T17:07:44.326Z,40.87
2018-12-16T17:09:56.328Z,39.37
2018-12-16T17:12:04.873Z,41.10
2018-12-16T17:14:16.907Z,42.70
2018-12-16T17:16:26.390Z,40.83
2018-12-16T17:18:39.491Z,38.93
2018-12-16T17:20:52.756Z,37.37
2018-12-16T17:23:03.385Z,38.43
2018-12-16T17:25:17.200Z,38.23
2018-12-16T17:27:32.756Z,36.70
2018-12-16T17:29:44.002Z,36.23
2018-12-16T17:31:54.412Z,36.30
2018-12-16T17:34:03.917Z,37.50
2018-12-16T17:36:13.718Z,37.27
2018-12-16T17:38:27.533Z,37.93
2018-12-16T17:40:47.626Z,36.03
2018-12-16T17:42:57.619Z,36.47
2018-12-16T17:47:23.033Z,38.47
2018-12-16T17:49:36.842Z,38.13
2018-12-16T17:52:04.821Z,37.30
2018-12-16T17:54:15.068Z,36.33
2018-12-16T17:56:25.761Z,37.33
2018-12-16T17:58:37.412Z,38.10
2018-12-16T18:00:51.665Z,40.20
2018-12-16T18:03:00.646Z,38.97
2018-12-16T18:05:11.659Z,38.03
2018-12-16T18:07:26.512Z,36.93
2018-12-16T18:09:37.316Z,35.93
2018-12-16T18:11:49.265Z,37.07
2018-12-16T18:13:59.440Z,34.60
2018-12-16T18:16:09.392Z,36.07
2018-12-16T18:18:20.613Z,35.77
2018-12-16T18:20:30.575Z,35.70
2018-12-16T18:22:42.854Z,37.23
2018-12-16T18:24:57.141Z,36.87
2018-12-16T18:29:40.271Z,36.33
2018-12-16T18:31:49.120Z,35.53
2018-12-16T18:33:59.317Z,38.00
2018-12-16T18:36:09.925Z,35.23
2018-12-16T18:38:23.089Z,37.90
2018-12-16T18:40:30.793Z,37.30
2018-12-16T18:42:44.968Z,38.10
2018-12-16T18:44:55.930Z,37.67
2018-12-16T18:47:10.744Z,38.67
2018-12-16T18:49:25.257Z,38.50
2018-12-16T18:51:36.639Z,38.73
2018-12-16T18:53:43.462Z,40.67
2018-12-16T18:55:53.071Z,39.67
2018-12-16T18:58:05.176Z,38.23
2018-12-16T19:00:17.383Z,37.67
2018-12-16T19:02:26.086Z,38.17
2018-12-16T19:04:36.759Z,38.03
2018-12-16T19:06:50.296Z,36.90
2018-12-16T19:09:01.298Z,37.17
2018-12-16T19:11:18.918Z,39.37
2018-12-16T19:13:28.093Z,39.00
2018-12-16T19:15:45.602Z,37.30
2018-12-16T19:18:03.525Z,37.40
2018-12-16T19:20:16.577Z,37.80
2018-12-16T19:22:24.433Z,35.73
2018-12-16T19:24:35.509Z,36.83
2018-12-16T19:26:47.015Z,37.13
2018-12-16T19:28:57.255Z,36.47
2018-12-16T19:31:09.418Z,38.63
2018-12-16T19:33:23.702Z,37.43
2018-12-16T19:35:32.402Z,37.57
2018-12-16T19:37:43.700Z,38.37
2018-12-16T19:39:53.014Z,38.63
2018-12-16T19:42:03.872Z,39.73
2018-12-16T19:44:14.483Z,39.73
2018-12-16T19:46:29.651Z,39.37
2018-12-16T19:48:45.363Z,42.00
2018-12-16T19:50:57.388Z,40.17
2018-12-16T19:53:12.363Z,43.30
2018-12-16T19:55:24.829Z,41.90
2018-12-16T19:59:49.139Z,42.03
2018-12-16T20:01:59.535Z,45.57
2018-12-16T20:04:12.693Z,43.83
2018-12-16T20:06:24.653Z,44.07
2018-12-16T20:08:33.787Z,44.50
2018-12-16T20:10:54.056Z,43.20
2018-12-16T20:13:02.801Z,43.33
2018-12-16T20:15:16.995Z,46.37
2018-12-16T20:17:26.548Z,50.27
2018-12-16T20:19:37.669Z,52.00
2018-12-16T20:21:46.585Z,52.20
2018-12-16T20:23:58.597Z,54.43
2018-12-16T20:26:11.989Z,59.57
2018-12-16T20:28:22.936Z,59.60
2018-12-16T20:30:39.632Z,62.47
2018-12-16T20:32:48.732Z,57.80
2018-12-16T20:35:01.698Z,62.80
2018-12-16T20:37:11.388Z,62.50
2018-12-16T20:39:29.175Z,58.53
2018-12-16T20:41:39.562Z,66.60
2018-12-16T20:43:48.242Z,60.83
2018-12-16T20:46:01.666Z,65.57
2018-12-16T20:48:15.449Z,60.53
2018-12-16T20:50:36.076Z,62.73
2018-12-16T20:52:47.357Z,63.60
2018-12-16T20:54:57.756Z,62.43
2018-12-16T20:57:06.489Z,64.00
2018-12-16T20:59:19.779Z,76.00
2018-12-16T21:01:49.179Z,77.17
2018-12-16T21:04:06.348Z,76.07
2018-12-16T21:06:17.942Z,91.47
2018-12-16T21:08:29.284Z,86.90
2018-12-16T21:10:49.079Z,93.03
2018-12-16T21:13:11.859Z,96.93
2018-12-16T21:15:25.500Z,107.53
2018-12-16T21:17:44.781Z,80.70
2018-12-16T21:19:55.518Z,80.43
2018-12-16T21:22:05.602Z,91.63
2018-12-16T21:26:32.139Z,78.77
2018-12-16T21:28:45.637Z,97.97
2018-12-16T21:31:06.635Z,82.40
2018-12-16T21:33:17.356Z,94.13
2018-12-16T21:35:33.950Z,90.13
2018-12-16T21:37:45.836Z,80.60
2018-12-16T21:39:58.034Z,80.50
2018-12-16T21:42:05.541Z,77.90
2018-12-16T21:44:15.401Z,70.57
2018-12-16T21:46:29.584Z,93.97
2018-12-16T21:48:42.575Z,82.90
2018-12-16T21:50:55.139Z,73.57
2018-12-16T21:53:05.007Z,78.47
2018-12-16T21:55:20.837Z,92.83
2018-12-16T21:57:33.178Z,80.17
2018-12-16T21:59:46.643Z,77.23
2018-12-16T22:01:55.275Z,56.67
2018-12-16T22:04:02.571Z,68.00
2018-12-16T22:06:13.679Z,69.20
2018-12-16T22:08:25.770Z,61.23
2018-12-16T22:10:32.898Z,48.63
2018-12-16T22:12:45.722Z,54.67
2018-12-16T22:14:54.278Z,53.60
2018-12-16T22:17:03.884Z,64.57
2018-12-16T22:19:14.748Z,60.40
2018-12-16T22:23:40.508Z,55.70
2018-12-16T22:25:49.357Z,56.73
2018-12-16T22:27:59.661Z,66.37
2018-12-16T22:30:07.062Z,55.17
2018-12-16T22:32:15.437Z,62.77
2018-12-16T22:34:21.822Z,59.27
2018-12-16T22:36:33.012Z,58.43
2018-12-16T22:38:59.456Z,61.03
2018-12-16T22:41:11.726Z,55.73
2018-12-16T22:43:25.621Z,54.67
2018-12-16T22:45:33.497Z,52.93
2018-12-16T22:47:43.837Z,55.47
2018-12-16T22:49:51.975Z,53.77
2018-12-16T22:52:02.414Z,55.27
2018-12-16T22:54:16.431Z,48.67
2018-12-16T22:56:26.825Z,46.70
2018-12-16T22:58:36.187Z,47.63
2018-12-16T23:00:50.380Z,47.70
2018-12-16T23:03:01.525Z,48.80
2018-12-16T23:05:13.508Z,48.27
2018-12-16T23:07:37.596Z,46.80
2018-12-16T23:09:50.320Z,46.80
2018-12-16T23:12:02.921Z,47.07
2018-12-16T23:14:11.335Z,45.63
2018-12-16T23:16:22.823Z,44.83
2018-12-16T23:18:32.315Z,46.67
2018-12-16T23:20:39.368Z,47.67
2018-12-16T23:22:50.835Z,49.47
2018-12-16T23:25:07.452Z,46.47
2018-12-16T23:27:15.656Z,44.67
2018-12-16T23:29:26.066Z,47.40
2018-12-16T23:31:38.105Z,47.73
2018-12-16T23:33:54.002Z,48.23
2018-12-16T23:36:02.887Z,47.37
2018-12-16T23:38:12.762Z,48.57
2018-12-16T23:40:23.736Z,47.80
2018-12-16T23:42:36.155Z,48.37
2018-12-16T23:44:48.462Z,48.13
2018-12-16T23:46:58.865Z,47.83
2018-12-16T23:49:09.452Z,46.80
2018-12-16T23:51:21.782Z,47.17
2018-12-16T23:53:33.914Z,52.23
2018-12-16T23:55:44.810Z,51.43
2018-12-16T23:58:01.028Z,54.10
